createdAt,value
2018-07-13T00:00:51.544Z,149668.50
2018-07-13T00:03:23.078Z,149662.27
2018-07-13T00:05:54.023Z,149666.02
2018-07-13T00:08:25.412Z,149657.28
2018-07-13T00:10:56.711Z,149662.27
2018-07-13T00:13:27.769Z,149667.27
2018-07-13T00:16:03.843Z,149667.27
2018-07-13T00:18:37.454Z,149669.81
2018-07-13T00:21:08.779Z,149664.77
2018-07-13T00:23:39.893Z,149663.52
2018-07-13T00:26:10.794Z,149677.34
2018-07-13T00:28:41.980Z,149672.34
2018-07-13T00:31:13.158Z,149678.59
2018-07-13T00:33:44.739Z,149673.59
2018-07-13T00:36:16.599Z,149656.03
2018-07-13T00:38:48.030Z,149671.06
2018-07-13T00:41:19.346Z,149661.03
2018-07-13T00:43:50.876Z,149661.03
2018-07-13T00:46:22.528Z,149643.55
2018-07-13T00:48:54.464Z,149643.55
2018-07-13T00:51:25.801Z,149647.30
2018-07-13T00:53:57.244Z,149631.06
2018-07-13T00:56:28.443Z,149633.56
2018-07-13T00:59:00.424Z,149643.55
2018-07-13T01:01:31.607Z,149646.05
2018-07-13T01:04:02.973Z,149641.05
2018-07-13T01:06:34.117Z,149636.06
2018-07-13T01:09:06.733Z,149629.81
2018-07-13T01:11:39.102Z,149611.05
2018-07-13T01:14:10.248Z,149611.05
2018-07-13T01:16:41.282Z,149616.03
2018-07-13T01:19:13.127Z,149608.55
2018-07-13T01:21:44.631Z,149589.83
2018-07-13T01:24:15.847Z,149601.06
2018-07-13T01:26:46.839Z,149596.06
2018-07-13T01:29:18.793Z,149594.83
2018-07-13T01:31:50.000Z,149602.31
2018-07-13T01:34:21.074Z,149613.55
2018-07-13T01:36:52.556Z,149598.56
2018-07-13T01:39:23.797Z,149601.06
2018-07-13T01:41:55.839Z,149596.06
2018-07-13T01:44:26.878Z,149603.56
2018-07-13T01:46:58.337Z,149599.81
2018-07-13T01:49:30.607Z,149566.06
2018-07-13T01:52:03.095Z,149596.06
2018-07-13T01:54:35.130Z,149576.06
2018-07-13T01:57:06.053Z,149579.84
2018-07-13T01:59:37.141Z,149561.08
2018-07-13T02:02:08.213Z,149559.83
2018-07-13T02:04:40.270Z,149569.81
2018-07-13T02:07:12.842Z,149571.06
2018-07-13T02:09:44.881Z,149588.59
2018-07-13T02:12:21.011Z,149557.34
2018-07-13T02:14:52.570Z,149526.09
2018-07-13T02:17:23.700Z,149544.86
2018-07-13T02:19:55.696Z,149539.88
2018-07-13T02:22:26.792Z,149532.37
2018-07-13T02:24:59.386Z,149547.34
2018-07-13T02:27:30.567Z,149542.36
2018-07-13T02:30:03.126Z,149538.63
2018-07-13T02:32:34.526Z,149556.09
2018-07-13T02:35:05.862Z,149556.09
2018-07-13T02:37:36.920Z,149554.84
2018-07-13T02:40:08.207Z,149542.36
2018-07-13T02:42:39.508Z,149544.86
2018-07-13T02:45:11.486Z,149534.88
2018-07-13T02:47:42.778Z,149522.34
2018-07-13T02:50:14.031Z,149513.62
2018-07-13T02:52:45.267Z,149521.11
2018-07-13T02:55:16.249Z,149527.34
2018-07-13T02:57:48.511Z,149576.06
2018-07-13T03:00:21.618Z,149577.34
2018-07-13T03:02:52.769Z,149583.59
2018-07-13T03:05:24.068Z,149598.56
2018-07-13T03:07:55.218Z,149612.30
2018-07-13T03:10:26.467Z,149624.83
2018-07-13T03:12:57.526Z,149676.09
2018-07-13T03:15:28.592Z,149748.56
2018-07-13T03:17:59.802Z,149881.11
2018-07-13T03:20:31.999Z,149981.14
2018-07-13T03:23:02.990Z,150018.72
2018-07-13T03:25:34.364Z,150136.28
2018-07-13T03:28:05.490Z,150216.41
2018-07-13T03:30:37.323Z,150242.72
2018-07-13T03:33:08.480Z,150344.12
2018-07-13T03:35:39.367Z,150416.72
2018-07-13T03:38:10.615Z,150434.28
2018-07-13T03:40:42.267Z,150537.00
2018-07-13T03:43:13.272Z,150570.78
2018-07-13T03:45:44.498Z,150639.69
2018-07-13T03:48:15.747Z,150653.50
2018-07-13T03:50:47.596Z,150684.84
2018-07-13T03:53:18.711Z,150842.75
2018-07-13T03:55:49.823Z,150920.48
2018-07-13T03:58:21.373Z,150834.00
2018-07-13T04:00:53.967Z,150892.89
2018-07-13T04:03:25.203Z,150812.72
2018-07-13T04:05:57.893Z,150810.16
2018-07-13T04:08:29.035Z,150562.02
2018-07-13T04:11:00.345Z,150411.72
2018-07-13T04:13:32.661Z,150258.97
2018-07-13T04:16:03.858Z,150198.91
2018-07-13T04:18:35.066Z,150132.53
2018-07-13T04:21:06.632Z,150130.03
2018-07-13T04:23:37.845Z,150031.20
2018-07-13T04:26:08.787Z,150018.72
2018-07-13T04:28:39.899Z,150023.72
2018-07-13T04:31:12.313Z,149969.89
2018-07-13T04:33:43.496Z,149976.14
2018-07-13T04:36:16.811Z,149933.62
2018-07-13T04:38:48.706Z,149968.64
2018-07-13T04:41:19.823Z,149988.64
2018-07-13T04:43:52.245Z,150106.28
2018-07-13T04:46:24.710Z,150490.61
2018-07-13T04:48:57.195Z,150676.08
2018-07-13T04:51:28.736Z,150772.56
2018-07-13T04:54:00.035Z,150933.02
2018-07-13T04:56:32.553Z,150900.41
2018-07-13T04:59:07.929Z,150805.16
2018-07-13T05:01:40.240Z,150654.75
2018-07-13T05:04:11.708Z,150749.97
2018-07-13T05:06:43.506Z,151116.19
2018-07-13T05:09:14.811Z,151326.95
2018-07-13T05:11:46.097Z,151545.47
2018-07-13T05:14:17.372Z,151808.00
2018-07-13T05:16:48.919Z,151883.39
2018-07-13T05:19:21.873Z,152031.77
2018-07-13T05:21:54.033Z,152048.09
2018-07-13T05:24:28.563Z,152053.16
2018-07-13T05:27:02.440Z,152156.28
2018-07-13T05:29:33.821Z,152158.78
2018-07-13T05:32:06.536Z,152151.25
2018-07-13T05:34:37.815Z,152411.63
2018-07-13T05:37:09.114Z,152354.98
2018-07-13T05:39:40.453Z,152470.75
2018-07-13T05:42:12.421Z,152717.52
2018-07-13T05:44:44.671Z,152840.91
2018-07-13T05:47:16.098Z,152869.89
2018-07-13T05:49:47.622Z,153056.38
2018-07-13T05:52:20.285Z,153070.22
2018-07-13T05:54:52.555Z,152937.91
2018-07-13T05:57:24.753Z,152994.62
2018-07-13T05:59:56.233Z,152698.61
2018-07-13T06:02:28.920Z,152903.91
2018-07-13T06:05:02.594Z,152770.44
2018-07-13T06:07:34.828Z,153145.81
2018-07-13T06:10:06.152Z,153155.94
2018-07-13T06:12:37.447Z,153467.33
2018-07-13T06:15:09.820Z,153411.83
2018-07-13T06:17:47.139Z,153355.13
2018-07-13T06:20:18.387Z,153226.52
2018-07-13T06:22:50.290Z,152815.75
2018-07-13T06:25:22.563Z,152901.37
2018-07-13T06:27:54.023Z,153297.09
2018-07-13T06:30:25.247Z,152888.81
2018-07-13T06:32:58.217Z,153090.34
2018-07-13T06:35:29.365Z,153174.81
2018-07-13T06:38:00.420Z,153532.91
2018-07-13T06:40:32.949Z,153505.16
2018-07-13T06:43:04.207Z,153791.56
2018-07-13T06:45:40.745Z,154094.53
2018-07-13T06:48:13.060Z,153960.75
2018-07-13T06:50:44.400Z,153943.00
2018-07-13T06:53:18.120Z,154180.41
2018-07-13T06:55:57.098Z,153613.63
2018-07-13T06:58:39.046Z,153447.19
2018-07-13T07:01:10.707Z,153521.53
2018-07-13T07:04:52.115Z,153130.72
2018-07-13T07:07:25.904Z,153149.64
2018-07-13T07:10:00.844Z,153057.63
2018-07-13T07:13:11.619Z,153352.59
2018-07-13T07:15:42.769Z,153660.34
2018-07-13T07:18:13.935Z,153598.52
2018-07-13T07:20:45.136Z,153281.95
2018-07-13T07:23:16.741Z,153318.50
2018-07-13T07:25:49.128Z,153124.42
2018-07-13T07:28:20.285Z,153332.41
2018-07-13T07:30:52.450Z,153229.03
2018-07-13T07:33:24.112Z,153432.02
2018-07-13T07:35:56.038Z,153110.58
2018-07-13T07:38:27.937Z,153067.69
2018-07-13T07:41:00.900Z,152949.23
2018-07-13T07:43:33.141Z,152949.23
2018-07-13T07:46:04.454Z,153186.14
2018-07-13T07:48:35.830Z,153126.94
2018-07-13T07:51:08.547Z,153212.66
2018-07-13T07:53:39.845Z,153215.19
2018-07-13T07:56:11.505Z,153380.30
2018-07-13T07:58:43.379Z,153469.84
2018-07-13T08:01:16.041Z,153568.23
2018-07-13T08:03:47.173Z,153213.92
2018-07-13T08:06:18.566Z,153076.50
2018-07-13T08:08:49.844Z,153023.61
2018-07-13T08:11:21.214Z,152979.47
2018-07-13T08:13:52.760Z,152820.78
2018-07-13T08:16:24.324Z,152402.83
2018-07-13T08:18:56.091Z,152331.06
2018-07-13T08:21:28.477Z,152182.66
2018-07-13T08:23:59.870Z,152105.94
2018-07-13T08:26:33.991Z,152104.69
2018-07-13T08:29:06.000Z,152083.30
2018-07-13T08:31:38.208Z,152211.59
2018-07-13T08:34:09.485Z,152129.80
2018-07-13T08:36:40.778Z,151987.72
2018-07-13T08:39:12.201Z,151985.22
2018-07-13T08:41:43.416Z,151777.88
2018-07-13T08:44:15.059Z,151771.61
2018-07-13T08:46:46.607Z,151701.20
2018-07-13T08:49:17.716Z,151637.17
2018-07-13T08:51:50.372Z,151573.09
2018-07-13T08:54:24.545Z,151547.97
2018-07-13T08:56:56.363Z,151558.00
2018-07-13T08:59:27.558Z,151476.34
2018-07-13T09:02:01.995Z,151540.44
2018-07-13T09:04:33.885Z,151573.09
2018-07-13T09:07:05.547Z,151558.00
2018-07-13T09:09:36.795Z,151504.03
2018-07-13T09:12:08.527Z,151482.66
2018-07-13T09:14:39.931Z,151460.05
2018-07-13T09:17:12.252Z,151491.44
2018-07-13T09:19:43.593Z,151487.69
2018-07-13T09:22:15.228Z,151355.84
2018-07-13T09:24:46.705Z,151357.09
2018-07-13T09:27:20.645Z,151392.28
2018-07-13T09:29:51.635Z,151404.83
2018-07-13T09:32:22.913Z,151417.38
2018-07-13T09:34:54.566Z,151364.61
2018-07-13T09:37:25.927Z,151416.11
2018-07-13T09:39:57.094Z,151429.95
2018-07-13T09:42:29.312Z,151445.00
2018-07-13T09:45:01.303Z,151502.78
2018-07-13T09:47:32.638Z,151488.94
2018-07-13T09:50:03.748Z,151501.52
2018-07-13T09:52:35.883Z,151439.98
2018-07-13T09:55:07.341Z,151456.28
2018-07-13T09:57:38.396Z,151471.33
2018-07-13T10:00:11.433Z,151519.08
2018-07-13T10:02:42.632Z,151507.78
2018-07-13T10:05:13.964Z,151617.00
2018-07-13T10:07:45.269Z,151688.66
2018-07-13T10:10:16.692Z,151605.72
2018-07-13T10:12:51.456Z,151610.73
2018-07-13T10:15:23.574Z,151570.55
2018-07-13T10:17:55.003Z,151588.16
2018-07-13T10:20:26.576Z,151676.11
2018-07-13T10:22:57.876Z,151599.44
2018-07-13T10:25:31.887Z,151537.94
2018-07-13T10:28:03.437Z,151498.97
2018-07-13T10:30:39.483Z,151344.56
2018-07-13T10:33:14.169Z,151383.52
2018-07-13T10:35:45.679Z,151374.69
2018-07-13T10:38:17.456Z,151316.94
2018-07-13T10:40:48.616Z,151257.97
2018-07-13T10:43:20.499Z,151161.33
2018-07-13T10:45:51.796Z,151126.20
2018-07-13T10:48:23.207Z,151148.81
2018-07-13T10:50:55.644Z,151099.89
2018-07-13T10:53:27.855Z,151124.95
2018-07-13T10:55:59.159Z,151145.05
2018-07-13T10:58:31.641Z,151143.75
2018-07-13T11:01:02.940Z,151124.95
2018-07-13T11:03:34.347Z,151068.47
2018-07-13T11:06:05.650Z,151103.66
2018-07-13T11:08:37.870Z,151142.50
2018-07-13T11:11:13.950Z,151153.81
2018-07-13T11:13:46.074Z,151210.25
2018-07-13T11:16:18.208Z,151293.11
2018-07-13T11:18:49.171Z,151279.28
2018-07-13T11:21:21.926Z,151310.66
2018-07-13T11:23:53.275Z,151324.45
2018-07-13T11:26:24.717Z,151315.67
2018-07-13T11:28:57.668Z,151380.95
2018-07-13T11:31:28.929Z,151374.69
2018-07-13T11:34:00.513Z,151273.02
2018-07-13T11:36:31.679Z,151207.75
2018-07-13T11:39:03.109Z,151084.77
2018-07-13T11:41:34.646Z,151047.14
2018-07-13T11:44:06.042Z,151023.33
2018-07-13T11:46:37.267Z,150940.53
2018-07-13T11:49:08.810Z,150857.78
2018-07-13T11:51:40.023Z,150805.16
2018-07-13T11:54:11.339Z,150717.44
2018-07-13T11:56:42.479Z,150643.44
2018-07-13T11:59:20.279Z,150435.53
2018-07-13T12:01:51.563Z,150161.31
2018-07-13T12:04:22.983Z,149999.88
2018-07-13T12:06:55.323Z,149911.13
2018-07-13T12:09:28.337Z,149897.34
2018-07-13T12:12:00.407Z,149839.80
2018-07-13T12:14:31.797Z,149824.81
2018-07-13T12:17:02.937Z,149804.78
2018-07-13T12:19:34.156Z,149833.56
2018-07-13T12:22:05.751Z,149853.59
2018-07-13T12:24:38.642Z,149921.12
2018-07-13T12:27:10.571Z,149936.13
2018-07-13T12:29:42.747Z,150019.97
2018-07-13T12:32:13.991Z,150036.22
2018-07-13T12:34:45.652Z,150003.63
2018-07-13T12:37:17.328Z,149986.13
2018-07-13T12:39:48.562Z,149933.62
2018-07-13T12:42:19.863Z,150055.00
2018-07-13T12:44:54.215Z,150162.56
2018-07-13T12:47:26.303Z,150361.64
2018-07-13T12:49:57.999Z,150520.69
2018-07-13T12:52:29.257Z,150539.50
2018-07-13T12:55:01.328Z,150508.17
2018-07-13T12:57:34.016Z,150304.03
2018-07-13T13:00:06.303Z,150004.92
2018-07-13T13:02:37.503Z,149798.55
2018-07-13T13:05:08.995Z,149521.11
2018-07-13T13:07:40.319Z,149461.13
2018-07-13T13:10:11.567Z,149416.16
2018-07-13T13:12:42.911Z,149361.23
2018-07-13T13:15:14.670Z,149368.72
2018-07-13T13:17:46.030Z,149346.27
2018-07-13T13:20:17.435Z,149318.78
2018-07-13T13:22:49.930Z,149378.69
2018-07-13T13:25:21.936Z,149416.16
2018-07-13T13:27:53.357Z,149467.36
2018-07-13T13:30:24.724Z,149524.84
2018-07-13T13:32:56.442Z,149601.06
2018-07-13T13:35:27.841Z,149526.09
2018-07-13T13:37:59.546Z,149459.88
2018-07-13T13:40:31.108Z,149401.19
2018-07-13T13:43:02.997Z,149397.45
2018-07-13T13:45:35.800Z,149383.69
2018-07-13T13:48:07.171Z,149382.44
2018-07-13T13:50:38.925Z,149389.97
2018-07-13T13:53:10.548Z,149374.95
2018-07-13T13:55:42.030Z,149376.20
2018-07-13T13:58:14.661Z,149336.23
2018-07-13T14:00:46.330Z,149291.25
2018-07-13T14:03:17.241Z,149308.80
2018-07-13T14:05:49.026Z,149322.53
2018-07-13T14:08:20.284Z,149404.94
2018-07-13T14:10:52.586Z,149454.88
2018-07-13T14:13:23.765Z,149492.41
2018-07-13T14:15:55.384Z,149526.09
2018-07-13T14:18:26.555Z,149528.59
2018-07-13T14:20:58.843Z,149536.13
2018-07-13T14:23:29.971Z,149558.58
2018-07-13T14:26:01.236Z,149564.81
2018-07-13T14:28:32.537Z,149601.06
2018-07-13T14:31:03.659Z,149632.31
2018-07-13T14:33:35.350Z,149684.83
2018-07-13T14:36:11.803Z,149726.08
2018-07-13T14:38:42.834Z,149746.06
2018-07-13T14:41:14.034Z,149786.06
2018-07-13T14:43:45.204Z,149801.03
2018-07-13T14:46:16.810Z,149768.58
2018-07-13T14:48:48.329Z,149796.05
2018-07-13T14:51:19.665Z,149793.55
2018-07-13T14:53:52.312Z,149793.55
2018-07-13T14:56:23.316Z,149814.83
2018-07-13T14:58:54.624Z,149813.53
2018-07-13T15:01:26.760Z,149837.30
2018-07-13T15:03:58.150Z,149813.53
2018-07-13T15:06:29.772Z,149817.33
2018-07-13T15:09:00.967Z,149846.09
2018-07-13T15:11:32.090Z,149821.06
2018-07-13T15:14:06.568Z,149827.31
2018-07-13T15:16:38.503Z,149851.09
2018-07-13T15:19:10.818Z,149898.59
2018-07-13T15:21:42.897Z,149927.38
2018-07-13T15:24:14.368Z,149906.09
2018-07-13T15:26:47.259Z,149933.62
2018-07-13T15:29:18.784Z,149932.37
2018-07-13T15:31:49.861Z,149902.34
2018-07-13T15:34:21.311Z,149838.55
2018-07-13T15:36:52.518Z,149798.55
2018-07-13T15:39:23.486Z,149791.06
2018-07-13T15:41:55.528Z,149761.03
2018-07-13T15:44:26.801Z,149773.58
2018-07-13T15:46:57.782Z,149796.05
2018-07-13T15:49:28.965Z,149774.81
2018-07-13T15:52:00.082Z,149817.33
2018-07-13T15:54:31.387Z,149834.81
2018-07-13T15:57:03.723Z,149849.84
2018-07-13T15:59:35.095Z,149893.59
2018-07-13T16:02:07.284Z,149943.61
2018-07-13T16:04:38.433Z,149968.64
2018-07-13T16:07:10.215Z,149968.64
2018-07-13T16:09:41.241Z,149937.38
2018-07-13T16:12:13.821Z,149936.13
2018-07-13T16:14:45.061Z,149928.63
2018-07-13T16:17:16.356Z,149937.38
2018-07-13T16:19:47.449Z,149951.11
2018-07-13T16:22:18.999Z,149948.61
2018-07-13T16:24:50.250Z,149942.36
2018-07-13T16:27:21.553Z,149921.12
2018-07-13T16:29:53.895Z,149904.84
2018-07-13T16:32:27.389Z,149907.34
2018-07-13T16:34:58.664Z,149914.89
2018-07-13T16:37:30.692Z,149897.34
2018-07-13T16:40:01.808Z,149904.84
2018-07-13T16:42:34.315Z,149917.38
2018-07-13T16:45:05.546Z,149919.88
2018-07-13T16:47:37.990Z,149908.59
2018-07-13T16:50:09.199Z,149908.59
2018-07-13T16:52:40.657Z,149906.09
2018-07-13T16:55:11.765Z,149918.63
2018-07-13T16:57:47.709Z,149883.61
2018-07-13T17:00:19.066Z,149829.81
2018-07-13T17:02:50.259Z,149796.05
2018-07-13T17:05:21.433Z,149774.81
2018-07-13T17:07:52.699Z,149736.06
2018-07-13T17:10:24.335Z,149711.05
2018-07-13T17:12:57.275Z,149696.06
2018-07-13T17:15:31.772Z,149651.03
2018-07-13T17:18:03.285Z,149596.06
2018-07-13T17:20:34.942Z,149617.28
2018-07-13T17:23:07.069Z,149618.53
2018-07-13T17:25:38.423Z,149594.83
2018-07-13T17:28:11.562Z,149578.59
2018-07-13T17:30:42.651Z,149577.34
2018-07-13T17:33:13.567Z,149556.09
2018-07-13T17:35:45.390Z,149528.59
2018-07-13T17:38:16.504Z,149529.88
2018-07-13T17:40:47.673Z,149531.13
2018-07-13T17:43:19.635Z,149547.34
2018-07-13T17:45:50.953Z,149563.58
2018-07-13T17:48:22.758Z,149548.59
2018-07-13T17:50:53.786Z,149564.81
2018-07-13T17:53:26.879Z,149582.34
2018-07-13T17:55:58.259Z,149567.31
2018-07-13T17:58:29.414Z,149509.88
2018-07-13T18:01:00.538Z,149492.41
2018-07-13T18:03:31.625Z,149458.63
2018-07-13T18:06:02.774Z,149321.28
2018-07-13T18:08:33.945Z,149237.59
2018-07-13T18:11:05.182Z,149203.92
2018-07-13T18:13:37.781Z,149162.73
2018-07-13T18:16:08.959Z,149192.66
2018-07-13T18:18:40.133Z,149176.45
2018-07-13T18:21:11.983Z,149196.39
2018-07-13T18:23:43.304Z,149136.52
2018-07-13T18:26:14.500Z,149152.77
2018-07-13T18:28:45.975Z,149172.70
2018-07-13T18:31:17.272Z,149178.94
2018-07-13T18:33:49.722Z,149211.41
2018-07-13T18:36:20.995Z,149175.20
2018-07-13T18:38:52.384Z,149166.47
2018-07-13T18:41:24.010Z,149124.05
2018-07-13T18:43:58.832Z,149116.53
2018-07-13T18:46:30.474Z,149120.31
2018-07-13T18:49:01.661Z,149109.05
2018-07-13T18:51:33.256Z,149092.80
2018-07-13T18:54:05.409Z,149061.64
2018-07-13T18:56:37.533Z,149054.11
2018-07-13T18:59:09.032Z,149021.72
2018-07-13T19:01:40.606Z,149017.97
2018-07-13T19:04:12.316Z,149011.75
2018-07-13T19:06:50.859Z,149019.22
2018-07-13T19:09:22.484Z,149027.94
2018-07-13T19:11:53.655Z,149029.19
2018-07-13T19:14:26.581Z,149035.42
2018-07-13T19:16:59.025Z,149041.66
2018-07-13T19:19:31.089Z,149029.19
2018-07-13T19:22:02.380Z,149037.91
2018-07-13T19:24:34.001Z,149059.16
2018-07-13T19:27:07.129Z,149072.84
2018-07-13T19:29:38.876Z,149069.12
2018-07-13T19:32:09.973Z,149057.91
2018-07-13T19:34:41.536Z,149076.59
2018-07-13T19:37:13.882Z,149082.81
2018-07-13T19:39:45.218Z,149094.03
2018-07-13T19:42:16.761Z,149097.78
2018-07-13T19:44:48.235Z,149137.75
2018-07-13T19:47:20.867Z,149156.50
2018-07-13T19:49:52.452Z,149166.47
2018-07-13T19:52:24.309Z,149187.67
2018-07-13T19:54:55.955Z,149200.19
2018-07-13T19:57:27.463Z,149185.17
2018-07-13T19:59:59.612Z,149186.42
2018-07-13T20:02:32.364Z,149185.17
2018-07-13T20:05:03.964Z,149198.94
2018-07-13T20:07:36.013Z,149210.16
2018-07-13T20:10:07.512Z,149225.12
2018-07-13T20:12:38.723Z,149197.64
2018-07-13T20:15:10.110Z,149188.91
2018-07-13T20:17:46.251Z,149193.91
2018-07-13T20:20:18.075Z,149206.41
2018-07-13T20:22:54.238Z,149225.12
2018-07-13T20:25:27.327Z,149201.44
2018-07-13T20:27:59.587Z,149187.67
2018-07-13T20:30:35.855Z,149180.19
2018-07-13T20:33:08.493Z,149183.94
2018-07-13T20:35:40.396Z,149167.72
2018-07-13T20:38:11.746Z,149166.47
2018-07-13T20:40:43.490Z,149160.25
2018-07-13T20:43:15.077Z,149148.97
2018-07-13T20:45:46.705Z,149167.72
2018-07-13T20:48:19.411Z,149208.91
2018-07-13T20:50:50.842Z,149182.69
2018-07-13T20:53:22.289Z,149188.91
2018-07-13T20:55:54.062Z,149197.64
2018-07-13T20:58:25.399Z,149218.88
2018-07-13T21:00:58.636Z,149233.84
2018-07-13T21:03:30.437Z,149242.58
2018-07-13T21:06:02.555Z,149196.39
2018-07-13T21:08:36.077Z,149150.22
2018-07-13T21:11:11.964Z,149157.75
2018-07-13T21:13:43.836Z,149144.00
2018-07-13T21:16:16.179Z,149140.25
2018-07-13T21:18:47.431Z,149119.06
2018-07-13T21:21:18.959Z,149144.00
2018-07-13T21:23:52.112Z,149144.00
2018-07-13T21:26:23.504Z,149156.50
2018-07-13T21:28:57.173Z,149146.48
2018-07-13T21:31:29.045Z,149156.50
2018-07-13T21:34:00.655Z,149168.97
2018-07-13T21:36:32.762Z,149165.23
2018-07-13T21:39:04.112Z,149147.73
2018-07-13T21:41:36.166Z,149148.97
2018-07-13T21:44:09.571Z,149135.27
2018-07-13T21:46:40.798Z,149136.52
2018-07-13T21:49:12.826Z,149067.87
2018-07-13T21:51:44.185Z,149054.11
2018-07-13T21:54:15.601Z,149069.12
2018-07-13T21:56:46.882Z,149074.09
2018-07-13T21:59:18.563Z,149066.62
2018-07-13T22:01:50.126Z,149071.61
2018-07-13T22:04:22.303Z,149059.16
2018-07-13T22:06:54.277Z,149064.13
2018-07-13T22:09:25.482Z,149072.84
2018-07-13T22:11:56.931Z,149076.59
2018-07-13T22:14:28.350Z,149092.80
2018-07-13T22:17:00.474Z,149106.56
2018-07-13T22:19:31.552Z,149071.61
2018-07-13T22:22:03.859Z,149089.06
2018-07-13T22:24:35.131Z,149087.81
2018-07-13T22:27:08.285Z,149100.27
2018-07-13T22:29:39.556Z,149060.39
2018-07-13T22:32:10.564Z,149072.84
2018-07-13T22:34:42.193Z,149144.00
2018-07-13T22:37:15.340Z,149185.17
2018-07-13T22:39:46.675Z,149201.44
2018-07-13T22:42:18.202Z,149198.94
2018-07-13T22:44:50.213Z,149212.66
2018-07-13T22:47:21.466Z,149235.09
2018-07-13T22:49:52.767Z,149231.34
2018-07-13T22:52:24.078Z,149237.59
2018-07-13T22:54:55.221Z,149237.59
2018-07-13T22:57:26.321Z,149230.11
2018-07-13T22:59:57.383Z,149228.86
2018-07-13T23:02:29.590Z,149208.91
2018-07-13T23:05:00.585Z,149207.66
2018-07-13T23:07:32.043Z,149211.41
2018-07-13T23:10:03.171Z,149211.41
2018-07-13T23:12:34.363Z,149196.39
2018-07-13T23:15:05.617Z,149177.69
2018-07-13T23:17:36.848Z,149152.77
2018-07-13T23:20:08.075Z,149127.78
2018-07-13T23:22:39.148Z,149116.53
2018-07-13T23:25:10.379Z,149082.81
2018-07-13T23:27:41.839Z,149094.03
2018-07-13T23:30:13.036Z,149069.12
2018-07-13T23:32:44.349Z,149062.88
2018-07-13T23:35:15.533Z,149071.61
2018-07-13T23:37:49.385Z,149061.64
2018-07-13T23:40:26.656Z,149072.84
2018-07-13T23:42:58.202Z,149051.63
2018-07-13T23:45:30.481Z,149082.81
2018-07-13T23:48:04.970Z,149056.66
2018-07-13T23:50:36.985Z,148999.23
2018-07-13T23:53:09.238Z,149039.16
2018-07-13T23:55:40.554Z,148989.27
2018-07-13T23:58:11.898Z,149017.97
